Time;durP1;ratioP1;P1;durP2;ratioP2;P2;SDS_P1;SDS_P2;PMS_P1;PMS_P2;Temp;Humidity;BMP_temperature;BMP_pressure;BME280_temperature;BME280_humidity;BME280_pressure;Samples;Min_cycle;Max_cycle;Signal;HPM_P1;HPM_P2
2022/08/13 00:01:19;;;;;;;7.15;4.95;;;18.50;99.90;;;;;;5096989;28;20044;-62
2022/08/13 00:03:46;;;;;;;5.25;4.30;;;18.50;99.90;;;;;;5096890;28;20074;-62
2022/08/13 00:06:12;;;;;;;6.53;4.07;;;18.50;99.90;;;;;;5094539;28;20101;-62
2022/08/13 00:08:39;;;;;;;4.78;4.28;;;18.50;99.90;;;;;;5114707;28;20446;-62
2022/08/13 00:11:07;;;;;;;5.32;4.07;;;18.40;99.90;;;;;;5114657;28;20044;-62
2022/08/13 00:13:34;;;;;;;8.88;4.40;;;18.40;99.90;;;;;;5114848;28;20058;-62
2022/08/13 00:16:01;;;;;;;4.93;4.35;;;18.40;99.90;;;;;;5079427;28;20045;-62
2022/08/13 00:18:31;;;;;;;7.20;4.07;;;18.40;99.90;;;;;;5096225;28;20450;-62
2022/08/13 00:20:59;;;;;;;6.85;4.65;;;18.40;99.90;;;;;;5114753;28;20059;-62
2022/08/13 00:23:27;;;;;;;6.70;4.53;;;18.30;99.90;;;;;;5096326;28;20538;-62
2022/08/13 00:25:55;;;;;;;5.60;4.57;;;18.30;99.90;;;;;;5096588;28;20062;-62
2022/08/13 00:28:24;;;;;;;7.57;5.10;;;18.30;99.90;;;;;;5114511;28;20040;-62
2022/08/13 00:30:50;;;;;;;9.10;5.03;;;18.20;99.90;;;;;;5096156;28;20046;-62
2022/08/13 00:33:19;;;;;;;9.10;5.40;;;18.20;99.90;;;;;;5096329;28;20043;-62
2022/08/13 00:35:49;;;;;;;7.53;5.00;;;18.10;99.90;;;;;;5096067;28;20043;-62
2022/08/13 00:38:20;;;;;;;6.38;4.93;;;18.00;99.90;;;;;;5093756;28;20040;-62
2022/08/13 00:40:51;;;;;;;5.85;4.78;;;18.00;99.90;;;;;;5078997;28;20032;-61
2022/08/13 00:43:17;;;;;;;6.20;5.30;;;17.90;99.90;;;;;;5095858;28;20476;-62
2022/08/13 00:45:43;;;;;;;8.18;5.13;;;17.80;99.90;;;;;;5078983;28;20043;-62
2022/08/13 00:48:53;;;;;;;7.00;4.70;;;17.80;99.90;;;;;;5095823;28;20043;-62
2022/08/13 00:51:01;;;;;;;7.33;4.77;;;17.70;99.90;;;;;;5102792;28;20044;-62
2022/08/13 00:53:30;;;;;;;7.55;5.88;;;17.60;99.90;;;;;;5113938;28;20349;-62
2022/08/13 00:55:59;;;;;;;5.95;5.10;;;17.50;99.90;;;;;;5078756;28;20043;-62
2022/08/13 00:58:27;;;;;;;6.40;4.93;;;17.50;99.90;;;;;;5113908;28;20134;-62
2022/08/13 01:00:58;;;;;;;6.13;5.07;;;17.50;99.90;;;;;;5095667;28;20036;-62
2022/08/13 01:03:27;;;;;;;7.07;4.72;;;17.40;99.90;;;;;;5113618;28;20039;-62
2022/08/13 01:05:59;;;;;;;7.68;5.35;;;17.40;99.90;;;;;;5095563;28;20043;-62
2022/08/13 01:08:27;;;;;;;7.78;5.47;;;17.30;99.90;;;;;;5111864;28;20043;-62
2022/08/13 01:10:56;;;;;;;9.18;5.43;;;17.30;99.90;;;;;;5095430;28;20089;-62
2022/08/13 01:13:25;;;;;;;6.05;5.10;;;17.20;99.90;;;;;;5113758;28;20050;-62
2022/08/13 01:15:52;;;;;;;5.10;4.20;;;17.20;99.90;;;;;;5113673;28;20039;-62
2022/08/13 01:18:22;;;;;;;5.38;4.82;;;17.10;99.90;;;;;;5113522;28;20051;-62
2022/08/13 01:20:58;;;;;;;6.15;4.40;;;17.00;99.90;;;;;;5095162;28;20042;-62
2022/08/13 01:23:25;;;;;;;6.35;5.57;;;16.90;99.90;;;;;;5095558;28;20514;-62
2022/08/13 01:25:54;;;;;;;5.55;4.35;;;16.90;99.90;;;;;;5095436;28;20035;-62
2022/08/13 01:28:23;;;;;;;8.65;5.50;;;16.90;99.90;;;;;;5095454;28;20043;-62
2022/08/13 01:30:50;;;;;;;6.70;5.18;;;16.80;99.90;;;;;;5095407;28;20035;-62
2022/08/13 01:33:17;;;;;;;7.70;5.82;;;16.80;99.90;;;;;;5095383;28;20085;-62
2022/08/13 01:35:45;;;;;;;8.20;5.43;;;16.70;99.90;;;;;;5095281;28;20043;-62
2022/08/13 01:38:12;;;;;;;7.85;5.07;;;16.60;99.90;;;;;;5110923;28;20047;-62
2022/08/13 01:40:38;;;;;;;7.22;5.55;;;16.60;99.90;;;;;;5113170;28;20035;-62
2022/08/13 01:43:05;;;;;;;6.93;5.47;;;16.60;99.90;;;;;;5093926;28;20044;-62
2022/08/13 01:45:31;;;;;;;6.18;5.43;;;16.60;99.90;;;;;;5094024;28;20036;-62
2022/08/13 01:50:42;;;;;;;7.15;5.10;;;16.60;99.90;;;;;;5112612;28;20058;-62
2022/08/13 01:53:11;;;;;;;7.40;6.25;;;16.60;99.90;;;;;;5093901;28;20043;-62
2022/08/13 01:55:40;;;;;;;7.75;5.55;;;16.50;99.90;;;;;;5112544;28;20046;-62
2022/08/13 01:58:08;;;;;;;7.10;5.93;;;16.50;99.90;;;;;;5112110;28;20430;-62
2022/08/13 02:00:36;;;;;;;9.73;5.93;;;16.40;99.90;;;;;;5112047;28;20047;-62
2022/08/13 02:03:04;;;;;;;6.70;5.70;;;16.40;99.90;;;;;;5093891;28;20046;-62
2022/08/13 02:05:31;;;;;;;7.18;6.07;;;16.40;99.90;;;;;;5093812;28;20035;-62
2022/08/13 02:07:58;;;;;;;6.85;5.63;;;16.30;99.90;;;;;;5091626;28;20426;-62
2022/08/13 02:10:24;;;;;;;7.55;5.80;;;16.30;99.90;;;;;;5113566;28;20056;-62
2022/08/13 02:12:51;;;;;;;7.07;5.07;;;16.30;99.90;;;;;;5097809;28;20053;-62
2022/08/13 02:15:17;;;;;;;7.25;5.68;;;16.20;99.90;;;;;;5097686;28;20036;-62
2022/08/13 02:17:43;;;;;;;7.00;5.50;;;16.20;99.90;;;;;;5080904;28;20130;-62
2022/08/13 02:20:17;;;;;;;6.88;5.65;;;16.20;99.90;;;;;;5115871;28;20035;-62
2022/08/13 02:22:46;;;;;;;8.32;6.15;;;16.20;99.90;;;;;;5116047;28;20044;-62
2022/08/13 02:25:14;;;;;;;8.70;5.87;;;16.10;99.90;;;;;;5097646;28;20039;-62
2022/08/13 02:27:41;;;;;;;7.75;5.80;;;16.10;99.90;;;;;;5115742;28;20043;-61
2022/08/13 02:30:09;;;;;;;7.28;5.82;;;16.10;99.90;;;;;;5115944;28;20062;-62
2022/08/13 02:32:39;;;;;;;9.95;7.25;;;16.10;99.90;;;;;;5115869;28;20035;-62
2022/08/13 02:35:06;;;;;;;6.43;5.55;;;16.10;99.90;;;;;;5080709;28;20419;-62
2022/08/13 02:37:32;;;;;;;8.05;6.03;;;16.10;99.90;;;;;;5112972;28;20465;-62
2022/08/13 02:40:00;;;;;;;8.90;5.97;;;16.10;99.90;;;;;;5097502;28;20046;-62
2022/08/13 02:42:31;;;;;;;7.80;5.72;;;16.00;99.90;;;;;;5097233;28;20044;-62
2022/08/13 02:44:58;;;;;;;7.57;5.65;;;16.00;99.90;;;;;;5097210;28;20101;-62
2022/08/13 02:47:25;;;;;;;5.70;5.10;;;15.90;99.90;;;;;;5097138;28;20044;-62
2022/08/13 02:49:52;;;;;;;7.55;5.70;;;15.90;99.90;;;;;;5097204;28;20075;-62
2022/08/13 02:52:19;;;;;;;6.93;6.22;;;15.80;99.90;;;;;;5097365;28;20101;-62
2022/08/13 02:54:47;;;;;;;7.63;5.72;;;15.80;99.90;;;;;;5115277;28;20048;-62
2022/08/13 02:57:14;;;;;;;7.70;6.75;;;15.80;99.90;;;;;;5097240;28;20457;-62
2022/08/13 02:59:41;;;;;;;8.45;6.55;;;15.70;99.90;;;;;;5097106;28;20134;-62
2022/08/13 03:02:08;;;;;;;8.32;6.80;;;15.70;99.90;;;;;;5097067;28;20045;-62
2022/08/13 03:04:34;;;;;;;7.22;6.53;;;15.70;99.90;;;;;;5080443;28;20123;-62
2022/08/13 03:07:02;;;;;;;7.85;6.13;;;15.60;99.90;;;;;;5094298;28;20523;-62
2022/08/13 03:09:29;;;;;;;7.28;6.57;;;15.60;99.90;;;;;;5114804;28;20052;-62
2022/08/13 03:11:59;;;;;;;6.63;5.97;;;15.60;99.90;;;;;;5096985;28;20108;-62
2022/08/13 03:14:28;;;;;;;9.85;6.45;;;15.50;99.90;;;;;;5115117;28;20111;-62
2022/08/13 03:16:54;;;;;;;8.02;6.50;;;15.50;99.90;;;;;;5096922;28;20456;-62
2022/08/13 03:19:21;;;;;;;6.55;5.90;;;15.50;99.90;;;;;;5096649;28;20040;-62
2022/08/13 03:21:47;;;;;;;6.78;6.07;;;15.50;99.90;;;;;;5113354;28;20099;-62
2022/08/13 03:24:15;;;;;;;8.70;6.50;;;15.50;99.90;;;;;;5096690;28;20046;-62
2022/08/13 03:26:44;;;;;;;7.05;6.25;;;15.40;99.90;;;;;;5096264;28;20046;-68
2022/08/13 03:29:10;;;;;;;9.10;7.05;;;15.40;99.90;;;;;;5097336;28;20035;-62
2022/08/13 03:31:37;;;;;;;7.88;6.72;;;15.40;99.90;;;;;;5097306;28;20036;-62
2022/08/13 03:34:04;;;;;;;10.18;6.22;;;15.40;99.90;;;;;;5115669;28;20042;-62
2022/08/13 03:36:31;;;;;;;10.93;7.05;;;15.40;99.90;;;;;;5113214;28;20098;-62
2022/08/13 03:38:58;;;;;;;9.82;6.07;;;15.40;99.90;;;;;;5097067;28;20075;-62
2022/08/13 03:41:25;;;;;;;7.45;6.65;;;15.40;99.90;;;;;;5097233;28;20132;-62
2022/08/13 03:43:51;;;;;;;7.95;6.40;;;15.40;99.90;;;;;;5115340;28;20541;-62
2022/08/13 03:46:21;;;;;;;8.35;6.07;;;15.40;99.90;;;;;;5115404;28;20415;-62
2022/08/13 03:48:48;;;;;;;9.20;5.63;;;15.40;99.90;;;;;;5097309;28;20043;-62
2022/08/13 03:51:16;;;;;;;9.05;7.30;;;15.40;99.90;;;;;;5115069;28;20058;-62
2022/08/13 03:53:44;;;;;;;10.07;6.10;;;15.40;99.90;;;;;;5115196;28;20122;-62
2022/08/13 03:56:12;;;;;;;7.43;5.97;;;15.40;99.90;;;;;;5115107;28;20476;-62
2022/08/13 03:58:38;;;;;;;8.38;5.50;;;15.40;99.90;;;;;;5096677;28;20097;-62
2022/08/13 04:01:04;;;;;;;6.63;5.72;;;15.40;99.90;;;;;;5096889;28;20040;-61
2022/08/13 04:03:36;;;;;;;7.25;5.47;;;15.40;99.90;;;;;;5079795;28;20047;-62
2022/08/13 04:06:19;;;;;;;6.55;5.10;;;15.40;99.90;;;;;;5096213;28;20092;-62
2022/08/13 04:08:46;;;;;;;6.13;4.85;;;15.30;99.90;;;;;;5096518;28;20098;-62
2022/08/13 04:11:15;;;;;;;7.88;5.60;;;15.30;99.90;;;;;;5114796;28;20051;-62
2022/08/13 04:13:41;;;;;;;6.40;5.78;;;15.30;99.90;;;;;;5096784;28;20096;-62
2022/08/13 04:16:13;;;;;;;10.70;6.75;;;15.30;99.90;;;;;;5096703;28;20391;-62
2022/08/13 04:18:41;;;;;;;9.40;6.38;;;15.20;99.90;;;;;;5096438;28;20039;-62
2022/08/13 04:21:09;;;;;;;7.90;5.80;;;15.20;99.90;;;;;;5079434;28;20040;-62
2022/08/13 04:23:39;;;;;;;8.18;7.18;;;15.20;99.90;;;;;;5096517;28;20043;-62
2022/08/13 04:26:10;;;;;;;6.68;6.05;;;15.20;99.90;;;;;;5096278;28;20071;-62
2022/08/13 04:28:39;;;;;;;8.15;6.00;;;15.20;99.90;;;;;;5096432;28;20043;-62
2022/08/13 04:31:06;;;;;;;8.13;6.03;;;15.20;99.90;;;;;;5096111;28;20040;-62
2022/08/13 04:33:32;;;;;;;6.68;5.20;;;15.10;99.90;;;;;;5095746;28;20537;-62
2022/08/13 04:35:57;;;;;;;7.65;5.60;;;15.10;99.90;;;;;;5095970;28;20047;-62
2022/08/13 04:38:23;;;;;;;7.53;5.03;;;15.10;99.90;;;;;;5093623;28;20105;-62
2022/08/13 04:40:51;;;;;;;5.82;5.20;;;15.10;99.90;;;;;;5096238;28;20044;-62
2022/08/13 04:43:17;;;;;;;5.43;4.82;;;15.10;99.90;;;;;;5114073;28;20097;-62
2022/08/13 04:45:43;;;;;;;9.48;5.32;;;15.20;99.90;;;;;;5114162;28;20036;-62
2022/08/13 04:48:13;;;;;;;6.40;5.05;;;15.20;99.90;;;;;;5095851;28;20050;-62
2022/08/13 04:50:41;;;;;;;5.55;4.72;;;15.30;99.90;;;;;;5114219;28;20108;-62
2022/08/13 04:53:27;;;;;;;9.68;5.53;;;15.30;99.90;;;;;;5095920;28;20089;-62
2022/08/13 04:55:53;;;;;;;5.93;5.30;;;15.30;99.90;;;;;;5078796;28;20039;-62
2022/08/13 04:58:21;;;;;;;7.22;5.75;;;15.40;99.90;;;;;;5095840;28;20051;-62
2022/08/13 05:00:48;;;;;;;6.75;5.90;;;15.40;99.90;;;;;;5113617;28;20118;-62
2022/08/13 05:03:16;;;;;;;9.23;5.88;;;15.40;99.90;;;;;;5113025;28;20442;-62
2022/08/13 05:05:44;;;;;;;7.78;5.97;;;15.40;99.90;;;;;;5112938;28;20040;-62
2022/08/13 05:08:12;;;;;;;7.30;5.65;;;15.40;99.90;;;;;;5110171;28;20093;-62
2022/08/13 05:10:39;;;;;;;6.03;5.43;;;15.50;99.90;;;;;;5094267;28;20579;-62
2022/08/13 05:13:28;;;;;;;6.50;5.80;;;15.50;99.90;;;;;;5094684;28;20055;-62
2022/08/13 05:15:56;;;;;;;7.00;5.75;;;15.60;99.90;;;;;;5094767;28;20097;-62
2022/08/13 05:18:23;;;;;;;6.00;4.38;;;15.70;99.90;;;;;;5112521;28;20052;-62
2022/08/13 05:20:50;;;;;;;7.10;5.07;;;15.70;99.90;;;;;;5094505;28;20035;-62
2022/08/13 05:23:16;;;;;;;8.45;5.13;;;15.80;99.90;;;;;;5094325;28;20042;-62
2022/08/13 05:25:42;;;;;;;6.03;4.88;;;15.90;99.90;;;;;;5094289;28;20044;-62
2022/08/13 05:28:08;;;;;;;5.85;4.53;;;16.00;99.90;;;;;;5094468;28;20075;-62
2022/08/13 05:30:38;;;;;;;8.75;4.65;;;16.10;99.90;;;;;;5094425;28;20120;-62
2022/08/13 05:33:31;;;;;;;5.20;4.70;;;16.20;99.90;;;;;;5094196;28;20043;-62
2022/08/13 05:35:59;;;;;;;8.00;4.43;;;16.30;99.90;;;;;;5074919;28;20367;-62
2022/08/13 05:38:27;;;;;;;7.65;5.35;;;16.40;99.90;;;;;;5074817;28;20051;-62
2022/08/13 05:40:56;;;;;;;4.70;4.20;;;16.50;99.90;;;;;;5112535;28;20448;-62
2022/08/13 05:43:28;;;;;;;6.38;4.35;;;16.70;99.90;;;;;;5094087;28;20243;-62
2022/08/13 05:45:59;;;;;;;8.75;4.05;;;16.70;99.90;;;;;;5076325;28;20039;-62
2022/08/13 05:48:30;;;;;;;6.32;3.67;;;16.90;99.90;;;;;;5094025;28;20044;-62
2022/08/13 05:50:59;;;;;;;6.55;4.25;;;17.00;99.90;;;;;;5094014;28;20043;-62
2022/08/13 05:53:26;;;;;;;6.55;3.78;;;17.10;99.90;;;;;;5094103;28;20039;-62
2022/08/13 05:55:53;;;;;;;6.00;4.30;;;17.30;99.90;;;;;;5112295;28;20039;-62
2022/08/13 05:58:21;;;;;;;6.38;3.42;;;17.40;99.90;;;;;;5093809;28;20119;-62
2022/08/13 06:03:32;;;;;;;7.65;4.45;;;17.70;99.90;;;;;;5112264;28;20405;-62
2022/08/13 06:06:03;;;;;;;5.57;3.50;;;17.80;99.90;;;;;;5112037;28;20362;-62
2022/08/13 06:08:32;;;;;;;9.07;3.50;;;18.00;99.90;;;;;;5109887;28;20040;-62
2022/08/13 06:11:00;;;;;;;5.95;3.75;;;18.10;99.90;;;;;;5093875;28;20048;-62
2022/08/13 06:13:28;;;;;;;4.97;3.75;;;18.30;99.90;;;;;;5093835;28;20040;-62
2022/08/13 06:16:01;;;;;;;5.50;3.20;;;18.50;99.90;;;;;;5112221;28;20067;-62
2022/08/13 06:18:32;;;;;;;4.70;3.30;;;18.60;99.90;;;;;;5093863;28;20047;-62
2022/08/13 06:21:01;;;;;;;7.53;3.45;;;18.80;99.90;;;;;;5111939;28;20039;-62
2022/08/13 06:23:29;;;;;;;9.60;3.83;;;19.10;99.90;;;;;;5076803;28;20036;-62
2022/08/13 06:25:57;;;;;;;6.22;3.17;;;19.30;99.90;;;;;;5093639;28;20518;-62
2022/08/13 06:28:26;;;;;;;4.50;2.83;;;19.50;99.90;;;;;;5093936;28;20044;-62
2022/08/13 06:30:53;;;;;;;5.80;2.58;;;19.80;99.90;;;;;;5093827;28;20118;-62
2022/08/13 06:33:21;;;;;;;4.55;2.42;;;20.00;99.90;;;;;;5111821;28;20515;-62
2022/08/13 06:35:57;;;;;;;4.00;2.17;;;20.40;99.90;;;;;;5076733;28;20097;-63
2022/08/13 06:38:31;;;;;;;3.25;2.20;;;20.70;99.90;;;;;;5091044;28;20040;-62
2022/08/13 06:41:00;;;;;;;4.25;2.70;;;21.10;99.90;;;;;;5076955;28;20040;-63
2022/08/13 06:43:28;;;;;;;3.78;2.38;;;21.50;99.90;;;;;;5093557;28;20039;-63
2022/08/13 06:45:56;;;;;;;2.53;2.05;;;21.80;99.90;;;;;;5093560;28;20075;-62
2022/08/13 06:48:23;;;;;;;3.35;2.15;;;22.10;99.90;;;;;;5076424;28;20043;-63
2022/08/13 06:50:50;;;;;;;4.47;2.28;;;22.40;99.90;;;;;;5111646;28;20149;-63
2022/08/13 06:53:17;;;;;;;2.83;1.90;;;22.70;99.90;;;;;;5093485;28;20089;-63
2022/08/13 06:55:45;;;;;;;3.15;1.70;;;23.00;99.90;;;;;;5077127;28;20499;-63
2022/08/13 06:58:11;;;;;;;7.03;2.47;;;23.40;99.90;;;;;;5080069;28;20044;-62
2022/08/13 07:00:39;;;;;;;3.38;1.80;;;23.60;99.90;;;;;;5075767;28;20086;-63
2022/08/13 07:03:06;;;;;;;3.88;1.65;;;23.80;99.90;;;;;;5062633;28;20040;-63
2022/08/13 07:05:43;;;;;;;4.28;1.90;;;24.00;99.90;;;;;;5110885;28;20118;-63
2022/08/13 07:08:11;;;;;;;4.82;1.70;;;24.10;99.90;;;;;;5074264;28;20060;-63
2022/08/13 07:10:47;;;;;;;2.90;1.45;;;24.30;99.90;;;;;;5094482;28;20139;-63
2022/08/13 07:13:13;;;;;;;4.90;1.50;;;24.40;99.90;;;;;;5076567;28;20060;-62
2022/08/13 07:15:45;;;;;;;2.33;1.40;;;24.50;99.50;;;;;;5059823;28;20030;-65
2022/08/13 07:18:11;;;;;;;2.90;1.60;;;24.50;98.30;;;;;;5076347;28;20048;-64
2022/08/13 07:20:37;;;;;;;4.53;1.98;;;24.70;98.20;;;;;;5076481;28;20040;-63
2022/08/13 07:23:03;;;;;;;3.92;1.63;;;24.90;97.80;;;;;;5094607;28;20376;-63
2022/08/13 07:25:32;;;;;;;3.17;1.85;;;25.00;96.80;;;;;;5059650;28;20036;-63
2022/08/13 07:27:59;;;;;;;3.03;1.30;;;25.10;95.80;;;;;;5076251;28;20048;-63
2022/08/13 07:30:26;;;;;;;5.80;1.20;;;25.20;95.10;;;;;;5076112;28;20054;-64
2022/08/13 07:32:52;;;;;;;3.25;1.33;;;25.10;94.60;;;;;;5094206;28;20036;-73
2022/08/13 07:35:19;;;;;;;4.72;1.40;;;25.20;94.70;;;;;;5094345;28;20043;-74
2022/08/13 07:37:49;;;;;;;4.35;1.70;;;25.40;94.20;;;;;;5091732;28;20071;-75
2022/08/13 07:40:15;;;;;;;3.97;1.20;;;25.50;94.30;;;;;;5075949;28;20133;-73
2022/08/13 07:42:43;;;;;;;9.65;1.65;;;25.70;93.70;;;;;;5075735;28;20075;-73
2022/08/13 07:45:10;;;;;;;2.72;1.20;;;25.80;93.40;;;;;;5076271;28;20043;-73
2022/08/13 07:47:39;;;;;;;4.85;1.55;;;26.10;93.20;;;;;;5075780;28;20048;-74
2022/08/13 07:50:10;;;;;;;5.40;1.10;;;26.30;92.30;;;;;;5076147;28;20086;-74
2022/08/13 07:52:38;;;;;;;3.10;1.38;;;26.50;92.30;;;;;;5075812;28;20484;-68
2022/08/13 07:55:05;;;;;;;1.67;1.20;;;26.70;91.30;;;;;;5093786;28;20044;-74
2022/08/13 07:57:32;;;;;;;3.13;1.25;;;26.90;90.10;;;;;;5093965;28;20062;-72
2022/08/13 07:59:58;;;;;;;4.28;1.27;;;27.00;87.50;;;;;;5075675;28;20055;-72
2022/08/13 08:02:31;;;;;;;3.55;1.38;;;27.10;86.30;;;;;;5093847;28;20036;-70
2022/08/13 08:04:57;;;;;;;4.25;1.40;;;27.30;85.20;;;;;;5075764;28;20028;-73
2022/08/13 08:07:27;;;;;;;2.33;1.42;;;27.40;84.10;;;;;;5090457;28;20408;-73
2022/08/13 08:09:54;;;;;;;3.38;1.35;;;27.60;84.20;;;;;;5106931;28;20055;-71
2022/08/13 08:12:36;;;;;;;3.42;1.15;;;27.90;82.80;;;;;;5095844;28;20400;-72
2022/08/13 08:15:08;;;;;;;2.08;1.20;;;28.10;80.50;;;;;;5095794;28;20044;-67
2022/08/13 08:17:33;;;;;;;3.03;1.20;;;28.30;80.50;;;;;;5113778;28;20031;-71
2022/08/13 08:20:00;;;;;;;3.45;1.20;;;28.40;77.80;;;;;;5095710;28;20055;-71
2022/08/13 08:22:27;;;;;;;4.38;1.50;;;28.50;76.20;;;;;;5086864;28;20472;-71
2022/08/13 08:24:53;;;;;;;2.05;0.80;;;28.60;74.70;;;;;;5096170;28;20048;-73
2022/08/13 08:27:25;;;;;;;2.22;1.10;;;28.80;76.80;;;;;;5095913;28;20495;-73
2022/08/13 08:29:54;;;;;;;3.88;1.42;;;29.10;77.10;;;;;;5114181;28;20078;-73
2022/08/13 08:32:20;;;;;;;4.43;1.45;;;29.50;78.20;;;;;;5096032;28;20052;-71
2022/08/13 08:34:50;;;;;;;2.28;1.08;;;29.80;74.50;;;;;;5096194;28;20046;-71
2022/08/13 08:42:55;;;;;;;3.50;1.10;;;30.60;73.20;;;;;;5095763;28;20104;-72
2022/08/13 08:45:22;;;;;;;3.53;1.00;;;30.80;70.50;;;;;;5095654;28;20039;-74
2022/08/13 08:47:49;;;;;;;2.50;1.13;;;31.00;70.60;;;;;;5075824;28;20043;-74
2022/08/13 08:50:17;;;;;;;3.80;1.02;;;31.10;66.80;;;;;;5113984;28;20127;-71
2022/08/13 08:55:35;;;;;;;3.33;1.17;;;31.40;65.30;;;;;;5095881;28;20436;-72
2022/08/13 08:58:03;;;;;;;3.85;1.00;;;31.50;63.40;;;;;;5078775;28;20144;-71
2022/08/13 09:00:29;;;;;;;3.13;1.05;;;31.70;63.60;;;;;;5095103;28;20031;-72
2022/08/13 09:02:56;;;;;;;5.50;1.25;;;31.80;63.70;;;;;;5095513;28;20488;-71
2022/08/13 09:05:24;;;;;;;3.70;1.08;;;31.90;64.20;;;;;;5078988;28;20419;-73
2022/08/13 09:07:50;;;;;;;2.00;0.90;;;32.10;63.80;;;;;;5093278;28;20039;-71
2022/08/13 09:10:19;;;;;;;2.22;1.10;;;32.20;62.30;;;;;;5095401;28;20427;-72
2022/08/13 09:12:47;;;;;;;3.42;1.10;;;32.30;60.10;;;;;;5095684;28;20039;-69
2022/08/13 09:15:15;;;;;;;2.65;1.13;;;32.40;59.10;;;;;;5078523;28;20039;-69
2022/08/13 09:17:41;;;;;;;2.47;1.20;;;32.30;56.40;;;;;;5095457;28;20047;-74
2022/08/13 09:20:17;;;;;;;4.85;1.00;;;32.20;57.30;;;;;;5113544;28;20088;-70
2022/08/13 09:22:45;;;;;;;3.47;0.93;;;32.20;56.20;;;;;;5095299;28;20042;-69
2022/08/13 09:25:14;;;;;;;1.95;0.75;;;32.10;55.30;;;;;;5095256;28;20040;-70
2022/08/13 09:27:43;;;;;;;4.40;1.10;;;32.10;55.10;;;;;;5113635;28;20377;-70
2022/08/13 09:30:09;;;;;;;;;;;32.10;53.50;;;;;;5095671;28;20123;-70
2022/08/13 09:32:35;;;;;;;3.38;0.80;;;32.20;55.20;;;;;;5095172;28;20387;-69
2022/08/13 09:35:04;;;;;;;5.15;1.08;;;32.10;51.70;;;;;;5113469;28;20043;-70
2022/08/13 09:37:31;;;;;;;3.17;1.10;;;32.10;51.70;;;;;;5092842;28;20039;-69
2022/08/13 09:40:06;;;;;;;2.85;1.13;;;32.10;51.50;;;;;;5078237;28;20044;-71
2022/08/13 09:42:49;;;;;;;2.75;0.90;;;32.10;51.90;;;;;;5095047;28;20032;-69
2022/08/13 09:45:14;;;;;;;2.28;1.38;;;32.30;52.60;;;;;;5078333;28;20488;-71
2022/08/13 09:47:41;;;;;;;1.42;0.90;;;32.30;52.60;;;;;;5095275;28;20069;-69
2022/08/13 09:50:10;;;;;;;3.47;0.90;;;32.30;50.70;;;;;;5110014;28;20036;-69
2022/08/13 09:52:36;;;;;;;2.17;0.88;;;32.30;51.80;;;;;;5094517;28;20093;-70
2022/08/13 09:55:04;;;;;;;2.97;0.90;;;32.40;51.80;;;;;;5078134;28;20043;-71
2022/08/13 09:57:30;;;;;;;3.43;1.17;;;32.50;50.60;;;;;;5076936;28;20067;-70
2022/08/13 09:59:57;;;;;;;3.03;1.17;;;32.50;51.50;;;;;;5094104;28;20043;-70
2022/08/13 10:02:22;;;;;;;2.60;1.00;;;32.60;50.80;;;;;;5094783;28;20369;-69
2022/08/13 10:04:55;;;;;;;2.08;1.10;;;32.80;50.30;;;;;;5113184;28;20065;-69
2022/08/13 10:07:21;;;;;;;2.78;1.30;;;32.90;49.20;;;;;;5092919;28;20042;-70
2022/08/13 10:09:47;;;;;;;2.70;0.77;;;32.90;48.40;;;;;;5108774;28;20434;-70
2022/08/13 10:12:14;;;;;;;2.58;0.98;;;32.80;49.40;;;;;;5113041;28;20533;-69
2022/08/13 10:14:40;;;;;;;1.92;1.23;;;32.80;48.70;;;;;;5094765;28;20063;-69
2022/08/13 10:17:08;;;;;;;3.15;1.20;;;32.80;48.70;;;;;;5112719;28;20036;-68
2022/08/13 10:19:33;;;;;;;2.92;1.13;;;32.80;46.90;;;;;;5094678;28;20082;-71
2022/08/13 10:21:59;;;;;;;4.43;1.58;;;32.70;47.80;;;;;;5077947;28;20079;-71
2022/08/13 10:24:25;;;;;;;2.05;1.10;;;32.80;48.70;;;;;;5112771;28;20164;-71
2022/08/13 10:26:51;;;;;;;5.72;1.27;;;33.00;49.50;;;;;;5112882;28;20118;-70
2022/08/13 10:29:17;;;;;;;2.53;1.02;;;33.30;49.00;;;;;;5094612;28;20384;-68
2022/08/13 10:31:43;;;;;;;3.13;1.25;;;33.50;48.80;;;;;;5096386;28;20046;-69
2022/08/13 10:34:09;;;;;;;3.83;1.02;;;33.50;47.00;;;;;;5098245;28;20043;-70
2022/08/13 10:36:35;;;;;;;1.55;0.88;;;33.50;47.80;;;;;;5096095;28;20051;-69
2022/08/13 10:39:03;;;;;;;3.17;1.00;;;33.70;46.90;;;;;;5116776;28;20036;-70
2022/08/13 10:41:29;;;;;;;2.47;0.97;;;33.70;46.10;;;;;;5098367;28;20040;-71
2022/08/13 10:43:59;;;;;;;1.48;0.90;;;33.80;46.80;;;;;;5116608;28;20040;-70
2022/08/13 10:46:26;;;;;;;3.17;0.98;;;34.00;46.10;;;;;;5098322;28;20052;-71
2022/08/13 10:48:55;;;;;;;2.00;1.10;;;33.90;45.40;;;;;;5098257;28;20123;-72
2022/08/13 10:51:22;;;;;;;2.85;0.77;;;33.70;46.20;;;;;;5098595;28;20431;-70
2022/08/13 10:54:01;;;;;;;2.08;0.93;;;33.70;45.80;;;;;;5098113;28;20039;-73
2022/08/13 10:56:29;;;;;;;1.15;0.85;;;33.70;45.80;;;;;;5098175;28;20043;-71
2022/08/13 10:58:56;;;;;;;3.50;1.10;;;33.70;45.30;;;;;;5097969;28;20807;-72
2022/08/13 11:01:24;;;;;;;2.05;0.80;;;33.80;45.30;;;;;;5116479;28;20039;-72
2022/08/13 11:03:52;;;;;;;2.40;0.80;;;33.80;46.10;;;;;;5081045;28;20122;-72
2022/08/13 11:06:18;;;;;;;7.80;1.20;;;33.90;47.10;;;;;;5079723;28;20043;-69
2022/08/13 11:08:47;;;;;;;4.03;1.38;;;34.00;43.40;;;;;;5097331;28;20090;-72
2022/08/13 11:11:12;;;;;;;2.25;0.90;;;33.70;42.80;;;;;;5097875;28;20468;-72
2022/08/13 11:13:39;;;;;;;2.25;1.10;;;33.50;42.80;;;;;;5097578;28;20122;-73
2022/08/13 11:16:56;;;;;;;3.30;1.00;;;33.40;43.90;;;;;;5096804;28;20081;-73
2022/08/13 11:18:55;;;;;;;1.38;0.90;;;33.40;44.90;;;;;;5096595;28;20380;-68
2022/08/13 11:21:22;;;;;;;2.95;1.00;;;33.60;45.80;;;;;;5093842;28;20035;-72
2022/08/13 11:23:52;;;;;;;1.35;0.95;;;33.70;44.70;;;;;;5104492;28;20126;-70
2022/08/13 11:26:19;;;;;;;3.47;0.82;;;33.70;42.50;;;;;;5077015;28;20040;-68
2022/08/13 11:28:45;;;;;;;2.13;0.90;;;33.70;42.90;;;;;;5076342;28;20040;-72
2022/08/13 11:31:11;;;;;;;2.38;0.80;;;33.50;42.00;;;;;;5076096;28;20062;-70
2022/08/13 11:33:37;;;;;;;1.20;0.77;;;33.40;42.20;;;;;;5094440;28;20078;-68
2022/08/13 11:36:04;;;;;;;1.52;0.80;;;33.30;41.40;;;;;;5076337;28;20058;-68
2022/08/13 11:38:30;;;;;;;2.05;0.73;;;33.30;42.50;;;;;;5073530;28;20040;-68
2022/08/13 11:40:57;;;;;;;4.10;1.30;;;33.20;42.90;;;;;;5059682;28;20384;-70
2022/08/13 11:43:26;;;;;;;1.77;0.95;;;33.20;42.00;;;;;;5093093;28;20032;-71
2022/08/13 11:45:51;;;;;;;3.05;0.90;;;33.10;42.00;;;;;;5076245;28;20043;-69
2022/08/13 11:48:19;;;;;;;3.55;0.90;;;33.10;42.50;;;;;;5076044;28;20040;-70
2022/08/13 11:50:45;;;;;;;1.48;0.93;;;33.00;42.80;;;;;;5075929;28;20051;-70
2022/08/13 11:53:11;;;;;;;2.53;1.00;;;32.90;43.10;;;;;;5075798;28;20044;-71
2022/08/13 11:55:37;;;;;;;3.25;1.00;;;32.80;43.90;;;;;;5075963;28;20047;-67
2022/08/13 11:58:07;;;;;;;2.38;0.95;;;32.80;44.30;;;;;;5093964;28;20051;-70
2022/08/13 12:00:38;;;;;;;2.22;1.10;;;32.80;42.90;;;;;;5075678;28;20047;-72
2022/08/13 12:03:07;;;;;;;1.35;0.80;;;32.80;43.50;;;;;;5075693;28;20042;-71
2022/08/13 12:05:33;;;;;;;;;;;32.70;43.60;;;;;;5075914;28;20047;-71
2022/08/13 12:07:59;;;;;;;1.67;0.70;;;32.80;45.80;;;;;;5073381;28;19916;-71
2022/08/13 12:10:25;;;;;;;1.73;0.80;;;32.80;43.50;;;;;;5093063;28;20059;-71
2022/08/13 12:12:52;;;;;;;1.98;0.95;;;32.90;45.40;;;;;;5113936;28;20580;-71
2022/08/13 12:15:18;;;;;;;1.42;0.80;;;32.90;43.40;;;;;;5078834;28;20044;-72
2022/08/13 12:17:46;;;;;;;2.83;1.17;;;32.90;44.30;;;;;;5113676;28;20074;-66
2022/08/13 12:20:14;;;;;;;3.38;1.27;;;32.90;43.70;;;;;;5112743;28;20118;-66
2022/08/13 12:22:40;;;;;;;2.95;1.00;;;32.90;42.50;;;;;;5114270;28;20059;-69
2022/08/13 12:25:11;;;;;;;2.65;1.13;;;32.90;42.60;;;;;;5095449;28;20036;-70
2022/08/13 12:27:37;;;;;;;4.20;0.80;;;32.80;44.10;;;;;;5095609;28;20043;-70
2022/08/13 12:30:07;;;;;;;2.28;1.00;;;32.80;44.30;;;;;;5112246;28;20130;-70
2022/08/13 12:32:33;;;;;;;1.63;1.00;;;32.70;43.40;;;;;;5113587;28;20465;-70
2022/08/13 12:34:59;;;;;;;2.15;1.20;;;32.70;42.80;;;;;;5113538;28;20039;-69
2022/08/13 12:37:25;;;;;;;2.45;0.77;;;32.70;43.50;;;;;;5110268;28;20072;-69
2022/08/13 12:39:53;;;;;;;3.47;0.93;;;32.70;42.90;;;;;;5113430;28;20482;-69
2022/08/13 12:42:19;;;;;;;3.15;1.00;;;32.60;43.90;;;;;;5078252;28;20468;-67
2022/08/13 12:44:45;;;;;;;3.55;1.00;;;32.50;44.20;;;;;;5113232;28;20046;-69
2022/08/13 12:47:10;;;;;;;1.63;0.98;;;32.40;42.80;;;;;;5095286;28;20036;-68
2022/08/13 12:49:36;;;;;;;2.17;0.98;;;32.30;42.80;;;;;;5094929;28;20035;-70
2022/08/13 12:52:02;;;;;;;3.33;1.08;;;32.20;42.00;;;;;;5094850;28;20042;-69
2022/08/13 12:54:28;;;;;;;1.98;0.98;;;32.00;41.90;;;;;;5094832;28;20122;-70
2022/08/13 12:56:54;;;;;;;3.58;1.60;;;32.00;42.00;;;;;;5095206;28;20443;-68
2022/08/13 12:59:20;;;;;;;1.40;0.80;;;31.90;41.90;;;;;;5113067;28;20495;-69
2022/08/13 13:01:52;;;;;;;2.20;1.15;;;31.80;42.60;;;;;;5112900;28;20042;-73
2022/08/13 13:04:20;;;;;;;3.35;1.17;;;31.80;43.20;;;;;;5095101;28;20035;-72
2022/08/13 13:06:46;;;;;;;4.10;1.17;;;31.80;44.30;;;;;;5109195;28;20047;-70